Terminal Aerodrome Forecast
Issued by NWS

Current Version | Previous Version | Text Only | Print | Product List | Glossary On
Versions: 1 2 3 4 5 6 7 8 9 10 11 12 13 14
000
FTUS42 KMLB 220500
TAFISM
TAF
KISM 220527Z 2206/2306 VRB03KT P6SM FEW010 BKN250
     FM221500 19005KT P6SM SCT035 BKN250
     FM222000 08007KT P6SM VCTS SCT045CB SCT080 BKN250
      TEMPO 2220/2222 2SM TSRA BKN025CB
     FM230100 14005KT P6SM FEW020 SCT100 OVC250
      AMD NOT SKED 2206/2211=

USA.gov is the U.S. government's official web portal to all federal, state and local government web resources and services.